Time;durP1;ratioP1;P1;durP2;ratioP2;P2;SDS_P1;SDS_P2;PMS_P1;PMS_P2;Temp;Humidity;BMP_temperature;BMP_pressure;BME280_temperature;BME280_humidity;BME280_pressure;Samples;Min_cycle;Max_cycle;Signal;HPM_P1;HPM_P2
2022/08/31 00:05:59;;;;;;;6.00;2.00;;;;;;;17.66;68.86;100507.52;106056;1271;139430;-71
2022/08/31 00:08:32;;;;;;;5.00;1.70;;;;;;;17.65;68.73;100508.85;106170;1271;107861;-70
2022/08/31 00:11:08;;;;;;;4.40;2.00;;;;;;;17.62;68.81;100509.02;106092;1271;139943;-70
2022/08/31 00:13:41;;;;;;;6.40;1.90;;;;;;;17.61;68.83;100509.23;106284;1270;97821;-71
2022/08/31 00:16:13;;;;;;;3.00;1.70;;;;;;;17.60;68.88;100508.96;106119;1270;138727;-71
2022/08/31 00:18:46;;;;;;;6.70;1.70;;;;;;;17.57;68.79;100508.57;106175;1271;112088;-71
2022/08/31 00:21:18;;;;;;;4.70;1.60;;;;;;;17.52;68.75;100510.93;106146;1271;108811;-71
2022/08/31 00:23:50;;;;;;;6.30;1.90;;;;;;;17.48;68.89;100511.18;106128;1270;138599;-71
2022/08/31 00:26:23;;;;;;;4.50;2.00;;;;;;;17.45;68.94;100513.48;106274;1270;97975;-72
2022/08/31 00:28:55;;;;;;;5.20;2.40;;;;;;;17.42;69.00;100519.28;106164;1270;138873;-72
2022/08/31 00:31:27;;;;;;;5.80;1.80;;;;;;;17.38;69.12;100520.53;106170;1271;112503;-72
2022/08/31 00:33:59;;;;;;;3.60;1.80;;;;;;;17.35;69.17;100519.50;106188;1271;108982;-70
2022/08/31 00:36:32;;;;;;;3.30;1.80;;;;;;;17.32;69.38;100519.70;106136;1270;138435;-71
2022/08/31 00:39:06;;;;;;;6.30;1.70;;;;;;;17.29;69.43;100522.30;106234;1270;97828;-71
2022/08/31 00:41:39;;;;;;;3.20;1.70;;;;;;;17.25;69.42;100522.36;106135;1271;138347;-71
2022/08/31 00:44:11;;;;;;;6.10;1.90;;;;;;;17.20;69.52;100524.52;106197;1271;111070;-72
2022/08/31 00:46:44;;;;;;;4.60;1.90;;;;;;;17.17;69.54;100525.58;106073;1271;139748;-72
2022/08/31 00:49:19;;;;;;;4.20;1.70;;;;;;;17.14;69.55;100521.91;106194;1271;108663;-72
2022/08/31 00:51:55;;;;;;;4.20;1.90;;;;;;;17.09;69.71;100525.34;106122;1271;98265;-72
2022/08/31 00:54:31;;;;;;;3.70;1.80;;;;;;;17.07;69.97;100525.84;106068;1273;139137;-71
2022/08/31 00:57:05;;;;;;;4.20;1.40;;;;;;;17.05;70.06;100524.66;106440;1270;111421;-71
2022/08/31 00:59:39;;;;;;;3.40;1.70;;;;;;;17.04;70.09;100526.63;106129;1270;138906;-72
2022/08/31 01:02:12;;;;;;;4.00;2.50;;;;;;;17.04;70.16;100530.52;106226;1271;107983;-71
2022/08/31 01:04:44;;;;;;;3.60;1.90;;;;;;;17.03;70.21;100528.80;106136;1270;138931;-71
2022/08/31 01:07:16;;;;;;;5.70;2.40;;;;;;;17.01;70.16;100524.56;106277;1271;97844;-71
2022/08/31 01:09:48;;;;;;;5.60;2.50;;;;;;;16.99;70.18;100523.09;106270;1271;112386;-71
2022/08/31 01:12:28;;;;;;;3.50;1.70;;;;;;;16.96;70.22;100520.79;106189;1270;138466;-71
2022/08/31 01:15:02;;;;;;;5.20;1.70;;;;;;;16.93;70.29;100522.70;106191;1271;106076;-71
2022/08/31 01:17:35;;;;;;;2.60;1.50;;;;;;;16.89;70.20;100520.29;107680;1271;139267;-71
2022/08/31 01:20:15;;;;;;;4.30;1.70;;;;;;;16.86;70.31;100525.86;107750;1271;95840;-71
2022/08/31 01:22:54;;;;;;;4.60;1.80;;;;;;;16.83;70.37;100524.11;107369;1273;139401;-71
2022/08/31 01:25:26;;;;;;;3.80;2.00;;;;;;;16.81;70.41;100528.39;106171;1271;108889;-71
2022/08/31 01:28:07;;;;;;;4.40;2.10;;;;;;;16.80;70.41;100523.89;106163;1271;108104;-71
2022/08/31 01:30:40;;;;;;;7.40;1.90;;;;;;;16.77;70.37;100525.66;106153;1271;97903;-71
2022/08/31 01:33:14;;;;;;;5.30;1.80;;;;;;;16.74;70.48;100523.76;106199;1272;97922;-71
2022/08/31 01:35:46;;;;;;;4.00;1.80;;;;;;;16.71;70.55;100523.02;106117;1271;138591;-71
2022/08/31 01:38:18;;;;;;;7.40;2.20;;;;;;;16.69;70.62;100521.00;106293;1270;107841;-71
2022/08/31 01:40:54;;;;;;;5.30;1.90;;;;;;;16.65;70.72;100522.91;107275;1271;141791;-71
2022/08/31 01:43:27;;;;;;;4.10;2.20;;;;;;;16.61;70.87;100522.42;107770;1271;96310;-71
2022/08/31 01:45:59;;;;;;;3.40;2.00;;;;;;;16.59;71.08;100517.27;106895;1271;97810;-71
2022/08/31 01:48:32;;;;;;;3.50;1.80;;;;;;;16.58;71.03;100519.94;106114;1271;139142;-71
2022/08/31 01:51:06;;;;;;;4.80;2.10;;;;;;;16.55;71.10;100517.14;106168;1273;108975;-70
2022/08/31 01:53:43;;;;;;;7.40;2.00;;;;;;;16.52;71.11;100517.46;106045;1272;140549;-70
2022/08/31 01:56:20;;;;;;;3.60;1.90;;;;;;;16.49;71.22;100517.60;106129;1271;97828;-71
2022/08/31 01:58:52;;;;;;;4.60;2.10;;;;;;;16.48;71.37;100517.34;106061;1271;138737;-71
2022/08/31 02:01:46;;;;;;;4.00;2.00;;;;;;;16.49;71.55;100515.00;106252;1270;112338;-72
2022/08/31 02:04:22;;;;;;;7.30;3.40;;;;;;;16.48;71.37;100513.44;106157;1271;141062;-71
2022/08/31 02:06:59;;;;;;;5.90;2.40;;;;;;;16.45;71.37;100512.40;106166;1271;109015;-71
2022/08/31 02:09:32;;;;;;;9.30;2.30;;;;;;;16.44;71.47;100513.89;106234;1271;97826;-71
2022/08/31 02:12:04;;;;;;;2.90;1.90;;;;;;;16.41;71.39;100513.83;106111;1271;139633;-71
2022/08/31 02:14:36;;;;;;;4.00;1.90;;;;;;;16.39;71.45;100513.77;106681;1271;112450;-71
2022/08/31 02:17:09;;;;;;;5.70;2.80;;;;;;;16.37;71.46;100512.86;107029;1271;138594;-71
2022/08/31 02:19:41;;;;;;;5.90;2.30;;;;;;;16.36;71.48;100515.73;106186;1274;108570;-72
2022/08/31 02:22:13;;;;;;;5.50;2.10;;;;;;;16.34;71.51;100509.64;106035;1274;138873;-72
2022/08/31 02:24:46;;;;;;;4.90;2.40;;;;;;;16.32;71.49;100507.80;106155;1274;97847;-72
2022/08/31 02:27:18;;;;;;;5.50;2.10;;;;;;;16.30;71.50;100504.20;106159;1271;112688;-73
2022/08/31 02:29:50;;;;;;;5.70;1.90;;;;;;;16.29;71.51;100507.41;106141;1271;138621;-73
2022/08/31 02:32:23;;;;;;;7.40;2.70;;;;;;;16.27;71.45;100507.20;106156;1271;108786;-73
2022/08/31 02:34:55;;;;;;;9.00;4.10;;;;;;;16.23;71.49;100507.91;106184;1270;138700;-73
2022/08/31 02:37:28;;;;;;;4.60;2.20;;;;;;;16.21;71.45;100507.31;106231;1271;97866;-73
2022/08/31 02:40:00;;;;;;;4.80;2.50;;;;;;;16.19;71.49;100506.38;106181;1271;112451;-73
2022/08/31 02:42:32;;;;;;;4.30;2.00;;;;;;;16.18;71.58;100509.24;106090;1271;138489;-73
2022/08/31 02:45:24;;;;;;;5.60;2.20;;;;;;;16.18;71.66;100508.55;106203;1271;107746;-71
2022/08/31 02:47:59;;;;;;;3.40;1.70;;;;;;;16.17;71.55;100510.86;106025;1271;138619;-73
2022/08/31 02:50:40;;;;;;;4.40;2.00;;;;;;;16.16;71.54;100506.88;106209;1271;97969;-73
2022/08/31 02:53:15;;;;;;;6.40;1.90;;;;;;;16.16;71.52;100503.19;106101;1271;138682;-72
2022/08/31 02:55:48;;;;;;;5.10;1.90;;;;;;;16.15;71.47;100507.09;107822;1271;107874;-72
2022/08/31 02:58:20;;;;;;;5.50;1.90;;;;;;;16.12;71.41;100506.88;106302;1270;138698;-72
2022/08/31 03:00:55;;;;;;;4.60;2.50;;;;;;;16.11;71.49;100511.01;106209;1270;97948;-72
2022/08/31 03:03:29;;;;;;;7.60;3.00;;;;;;;16.09;71.53;100514.41;106244;1271;97842;-72
2022/08/31 03:06:01;;;;;;;6.90;2.10;;;;;;;16.10;71.53;100518.08;106117;1271;138545;-72
2022/08/31 03:08:33;;;;;;;4.80;2.30;;;;;;;16.10;71.54;100514.38;106229;1271;108562;-72
2022/08/31 03:11:06;;;;;;;5.50;2.00;;;;;;;16.10;71.54;100513.14;106690;1271;138898;-72
2022/08/31 03:13:39;;;;;;;3.30;1.60;;;;;;;16.10;71.49;100513.17;107752;1271;96305;-72
2022/08/31 03:16:15;;;;;;;4.90;2.00;;;;;;;16.09;71.49;100509.70;106202;1271;138553;-72
2022/08/31 03:18:47;;;;;;;5.90;2.00;;;;;;;16.08;71.59;100513.41;106238;1271;111711;-72
2022/08/31 03:21:19;;;;;;;4.80;1.80;;;;;;;16.09;71.47;100517.95;106185;1271;108905;-72
2022/08/31 03:23:52;;;;;;;5.50;2.30;;;;;;;16.07;71.44;100519.10;106144;1270;140204;-72
2022/08/31 03:26:25;;;;;;;3.70;1.80;;;;;;;16.05;71.53;100519.39;106201;1271;97829;-71
2022/08/31 03:28:57;;;;;;;4.10;1.70;;;;;;;16.06;71.55;100522.10;106094;1271;138420;-73
2022/08/31 03:31:41;;;;;;;4.10;1.60;;;;;;;16.08;71.62;100520.63;106218;1271;111422;-72
2022/08/31 03:34:13;;;;;;;6.50;1.70;;;;;;;16.09;71.54;100521.46;106059;1271;138755;-72
2022/08/31 03:36:47;;;;;;;4.80;1.90;;;;;;;16.09;71.47;100521.43;106240;1270;107758;-72
2022/08/31 03:39:19;;;;;;;4.20;1.80;;;;;;;16.09;71.50;100523.36;106205;1270;97830;-72
2022/08/31 03:41:51;;;;;;;3.70;1.80;;;;;;;16.10;71.47;100526.48;107148;1271;138510;-72
2022/08/31 03:44:23;;;;;;;4.70;1.70;;;;;;;16.11;71.56;100530.10;107822;1271;111596;-72
2022/08/31 03:46:56;;;;;;;5.10;2.80;;;;;;;16.13;71.52;100531.58;107705;1271;138744;-73
2022/08/31 03:49:29;;;;;;;6.00;1.70;;;;;;;16.14;71.46;100530.80;107774;1271;108814;-72
2022/08/31 03:52:12;;;;;;;5.40;2.10;;;;;;;16.16;71.37;100533.04;107661;1271;138717;-72
2022/08/31 03:54:48;;;;;;;4.40;2.00;;;;;;;16.17;71.37;100532.61;107776;1271;96258;-72
2022/08/31 03:57:21;;;;;;;5.70;2.00;;;;;;;16.19;71.28;100536.55;107790;1271;112517;-73
2022/08/31 03:59:56;;;;;;;4.40;1.60;;;;;;;16.20;71.17;100535.26;107661;1270;138554;-72
2022/08/31 04:02:46;;;;;;;4.30;2.70;;;;;;;16.23;71.18;100534.26;107794;1270;108308;-72
2022/08/31 04:05:33;;;;;;;4.80;2.40;;;;;;;16.25;71.12;100531.69;107709;1271;139078;-73
2022/08/31 04:08:24;;;;;;;6.20;2.00;;;;;;;16.26;71.07;100532.30;106830;1270;97566;-73
2022/08/31 04:11:18;;;;;;;6.30;2.60;;;;;;;16.27;70.96;100536.80;106140;1270;138423;-72
2022/08/31 04:14:28;;;;;;;3.40;1.90;;;;;;;16.27;70.95;100534.56;106231;1270;109057;-72
2022/08/31 04:17:19;;;;;;;6.80;2.00;;;;;;;16.27;70.93;100536.63;106059;1270;138536;-73
2022/08/31 04:19:57;;;;;;;4.60;2.00;;;;;;;16.29;71.01;100538.62;106430;1271;97921;-72
2022/08/31 04:22:37;;;;;;;4.80;2.00;;;;;;;16.32;70.96;100540.79;106135;1271;138776;-72
2022/08/31 04:25:30;;;;;;;5.70;2.20;;;;;;;16.32;70.74;100544.63;106222;1271;112650;-73
2022/08/31 04:28:02;;;;;;;6.00;2.20;;;;;;;16.32;70.75;100547.45;106190;1271;106370;-73
2022/08/31 04:30:36;;;;;;;5.30;2.30;;;;;;;16.32;70.78;100552.19;106044;1271;138737;-72
2022/08/31 04:33:09;;;;;;;5.00;2.00;;;;;;;16.35;70.76;100555.23;106182;1271;98094;-73
2022/08/31 04:35:43;;;;;;;3.70;2.30;;;;;;;16.37;70.65;100557.05;106118;1271;139155;-72
2022/08/31 04:38:15;;;;;;;4.40;2.10;;;;;;;16.40;70.65;100558.85;106212;1271;111423;-72
2022/08/31 04:40:49;;;;;;;5.00;1.90;;;;;;;16.41;70.68;100560.87;106076;1271;138919;-72
2022/08/31 04:43:23;;;;;;;4.90;2.20;;;;;;;16.44;70.82;100560.91;106127;1271;109904;-72
2022/08/31 04:45:56;;;;;;;3.30;1.70;;;;;;;16.47;70.72;100561.08;106192;1271;97973;-72
2022/08/31 04:48:28;;;;;;;6.20;2.00;;;;;;;16.48;70.55;100561.03;106059;1273;138940;-73
2022/08/31 04:51:05;;;;;;;5.00;1.70;;;;;;;16.50;70.41;100572.30;106241;1271;112543;-72
2022/08/31 04:53:37;;;;;;;4.80;2.10;;;;;;;16.52;70.31;100570.13;106084;1271;138614;-73
2022/08/31 04:56:13;;;;;;;6.70;2.30;;;;;;;16.53;70.24;100569.40;106217;1270;107782;-73
2022/08/31 04:58:46;;;;;;;;;;;;;;;16.55;70.12;100574.04;106057;1271;138857;-73
2022/08/31 05:01:20;;;;;;;6.50;2.00;;;;;;;16.56;70.15;100573.11;106216;1271;97855;-73
2022/08/31 05:03:57;;;;;;;3.60;2.20;;;;;;;16.59;70.38;100568.38;106209;1270;110538;-72
2022/08/31 05:06:36;;;;;;;5.00;1.90;;;;;;;16.64;70.32;100573.20;105987;1273;140535;-72
2022/08/31 05:09:10;;;;;;;9.00;2.70;;;;;;;16.69;70.28;100569.27;106190;1271;107810;-72
2022/08/31 05:11:46;;;;;;;23.40;7.40;;;;;;;16.75;70.22;100571.77;105950;1271;138839;-73
2022/08/31 05:14:20;;;;;;;12.50;3.30;;;;;;;16.82;70.01;100573.17;106174;1271;97886;-73
2022/08/31 05:17:00;;;;;;;14.90;2.70;;;;;;;16.87;69.91;100573.07;106006;1271;138697;-72
2022/08/31 05:19:33;;;;;;;11.90;2.60;;;;;;;16.93;69.84;100571.54;106192;1271;110581;-72
2022/08/31 05:22:11;;;;;;;14.00;2.50;;;;;;;17.02;69.82;100568.77;105982;1272;139798;-74
2022/08/31 05:24:44;;;;;;;7.60;2.40;;;;;;;17.14;69.78;100571.09;107815;1269;96093;-73
2022/08/31 05:27:16;;;;;;;7.90;2.60;;;;;;;17.28;69.62;100575.60;107788;1270;95855;-73
2022/08/31 05:29:49;;;;;;;7.90;2.60;;;;;;;17.44;69.45;100579.11;107644;1271;139835;-74
2022/08/31 05:32:50;;;;;;;11.00;2.50;;;;;;;17.71;69.54;100581.11;107226;1271;109360;-74
2022/08/31 05:35:22;;;;;;;6.60;2.10;;;;;;;18.01;68.48;100583.83;107701;1271;138734;-74
2022/08/31 05:37:54;;;;;;;5.90;1.90;;;;;;;18.14;67.92;100583.79;107755;1271;96425;-74
2022/08/31 05:40:26;;;;;;;5.90;1.70;;;;;;;18.27;67.54;100587.40;107591;1271;140683;-74
2022/08/31 05:42:59;;;;;;;6.60;2.40;;;;;;;18.37;66.99;100590.20;107746;1271;111431;-75
2022/08/31 05:45:31;;;;;;;4.00;1.50;;;;;;;18.48;66.75;100588.27;107694;1271;107935;-75
2022/08/31 05:48:05;;;;;;;8.50;1.90;;;;;;;18.65;66.74;100590.60;107652;1270;138897;-75
2022/08/31 05:50:39;;;;;;;3.60;2.40;;;;;;;18.85;66.15;100584.82;107730;1270;95816;-75
2022/08/31 05:53:11;;;;;;;2.80;1.60;;;;;;;19.29;65.68;100591.65;106622;1272;138830;-74
2022/08/31 05:55:44;;;;;;;6.40;1.40;;;;;;;19.60;64.80;100591.09;106138;1271;112339;-76
2022/08/31 05:58:15;;;;;;;4.90;1.60;;;;;;;19.85;64.32;100594.91;105985;1273;138688;-77
2022/08/31 06:00:48;;;;;;;4.20;1.70;;;;;;;20.10;64.17;100593.31;106077;1271;109008;-75
2022/08/31 06:03:47;;;;;;;5.90;1.50;;;;;;;20.41;63.02;100590.46;106085;1271;97858;-75
2022/08/31 06:06:20;;;;;;;6.70;2.50;;;;;;;20.68;62.18;100592.25;105927;1273;140127;-76
2022/08/31 06:08:52;;;;;;;4.20;1.70;;;;;;;20.91;61.13;100595.94;106088;1271;112410;-77
2022/08/31 06:11:26;;;;;;;4.00;1.20;;;;;;;21.18;59.91;100600.04;106012;1271;138052;-76
2022/08/31 06:14:01;;;;;;;6.90;1.50;;;;;;;21.41;59.21;100608.46;106151;1271;109128;-76
2022/08/31 06:16:34;;;;;;;3.30;1.40;;;;;;;22.05;59.16;100609.48;106092;1271;138123;-76
2022/08/31 06:19:07;;;;;;;5.20;1.90;;;;;;;22.62;58.43;100609.09;106103;1271;98087;-76
2022/08/31 06:21:42;;;;;;;5.40;1.20;;;;;;;23.03;57.23;100607.56;106203;1271;112270;-76
2022/08/31 06:24:25;;;;;;;2.90;1.30;;;;;;;23.17;56.34;100612.27;106101;1271;138089;-76
2022/08/31 06:27:00;;;;;;;4.30;1.90;;;;;;;23.27;55.61;100615.06;106022;1271;107916;-77
2022/08/31 06:29:35;;;;;;;2.40;1.10;;;;;;;23.38;55.36;100614.31;106063;1270;138330;-75
2022/08/31 06:32:08;;;;;;;2.50;1.10;;;;;;;23.59;54.18;100610.36;106238;1270;97884;-76
2022/08/31 06:34:52;;;;;;;2.80;1.10;;;;;;;23.94;53.31;100610.13;106010;1271;139766;-76
2022/08/31 06:37:47;;;;;;;2.40;1.10;;;;;;;24.94;52.36;100605.08;106027;1270;108764;-76
2022/08/31 06:40:38;;;;;;;2.10;1.00;;;;;;;26.04;51.25;100601.36;106135;1270;138051;-76
2022/08/31 06:43:30;;;;;;;2.10;1.10;;;;;;;27.30;50.42;100602.17;106282;1270;97918;-76
2022/08/31 06:46:05;;;;;;;3.70;1.00;;;;;;;28.85;47.84;100597.79;106193;1270;97860;-77
2022/08/31 06:49:00;;;;;;;4.70;2.20;;;;;;;29.55;46.20;100602.98;106250;1270;111409;-77
2022/08/31 06:51:35;;;;;;;5.90;1.10;;;;;;;30.23;44.18;100602.23;106201;1271;108512;-77
2022/08/31 06:54:10;;;;;;;3.50;1.20;;;;;;;31.18;43.03;100595.21;106079;1271;138388;-76
2022/08/31 06:57:19;;;;;;;1.50;0.80;;;;;;;32.70;41.20;100586.27;106183;1270;98449;-75
2022/08/31 07:00:11;;;;;;;1.80;0.90;;;;;;;33.51;38.86;100590.95;106058;1269;138030;-77
2022/08/31 07:02:46;;;;;;;3.00;1.10;;;;;;;33.99;37.61;100594.20;106245;1270;111028;-76
2022/08/31 07:05:29;;;;;;;2.60;1.20;;;;;;;34.57;37.40;100598.35;105946;1270;139211;-78
2022/08/31 07:08:01;;;;;;;5.60;1.20;;;;;;;35.10;36.01;100591.26;106222;1270;109024;-77
2022/08/31 07:10:35;;;;;;;6.00;1.10;;;;;;;35.79;34.90;100597.48;106123;1270;139556;-78
2022/08/31 07:13:07;;;;;;;1.70;0.90;;;;;;;36.40;34.10;100594.75;106169;1271;97760;-77
2022/08/31 07:15:39;;;;;;;2.60;0.70;;;;;;;36.43;33.50;100595.00;105217;1270;1388485;-77
2022/08/31 07:18:12;;;;;;;3.10;1.40;;;;;;;35.86;32.36;100592.61;106033;1271;138111;-76
2022/08/31 07:20:44;;;;;;;6.90;1.20;;;;;;;35.42;32.60;100595.35;106257;1270;107439;-76
2022/08/31 07:23:17;;;;;;;4.90;1.10;;;;;;;35.18;32.82;100597.85;106039;1271;138070;-76
2022/08/31 07:26:03;;;;;;;1.60;0.90;;;;;;;34.75;32.40;100594.87;106142;1271;98485;-77
2022/08/31 07:28:35;;;;;;;7.80;1.80;;;;;;;34.17;32.81;100596.63;106081;1270;137817;-76
2022/08/31 07:31:07;;;;;;;3.70;1.10;;;;;;;33.82;32.59;100596.51;106227;1270;108640;-77
2022/08/31 07:33:40;;;;;;;3.80;1.10;;;;;;;34.10;32.88;100591.18;106077;1270;109108;-77
2022/08/31 07:36:15;;;;;;;7.10;1.80;;;;;;;34.58;32.78;100593.53;106043;1270;138611;-75
2022/08/31 07:42:10;;;;;;;5.00;1.20;;;;;;;35.64;31.17;100606.16;106127;1270;137622;-77
2022/08/31 07:44:42;;;;;;;7.40;1.30;;;;;;;35.49;30.79;100602.98;106158;1270;106740;-77
2022/08/31 07:47:27;;;;;;;4.30;1.30;;;;;;;36.08;30.93;100602.35;106030;1271;138858;-76
2022/08/31 07:50:01;;;;;;;4.60;0.90;;;;;;;36.82;30.31;100598.05;106209;1270;98728;-77
2022/08/31 07:52:46;;;;;;;1.80;0.80;;;;;;;36.94;28.94;100593.04;106105;1270;137996;-77
2022/08/31 07:55:40;;;;;;;4.60;0.90;;;;;;;36.86;28.63;100601.42;106235;1270;112260;-75
2022/08/31 07:58:33;;;;;;;4.10;0.90;;;;;;;37.31;28.34;100594.38;106138;1270;137999;-76
2022/08/31 08:01:06;;;;;;;2.50;0.90;;;;;;;37.59;27.46;100594.39;106236;1270;108617;-77
2022/08/31 08:03:42;;;;;;;3.20;0.70;;;;;;;37.97;27.53;100596.33;106192;1270;97948;-77
2022/08/31 08:06:34;;;;;;;2.10;0.80;;;;;;;38.17;26.10;100591.70;106084;1270;137617;-76
2022/08/31 08:09:12;;;;;;;5.20;0.80;;;;;;;38.09;25.51;100594.02;106239;1270;112581;-77
2022/08/31 08:12:05;;;;;;;3.00;0.70;;;;;;;37.95;25.15;100599.27;106116;1270;138023;-76
2022/08/31 08:15:11;;;;;;;2.10;0.90;;;;;;;37.79;25.58;100604.02;106037;1271;108800;-77
2022/08/31 08:18:19;;;;;;;1.30;0.50;;;;;;;38.11;26.01;100604.11;106492;1274;138501;-74
2022/08/31 08:20:54;;;;;;;1.10;0.70;;;;;;;38.26;25.31;100610.22;106161;1270;97703;-75
2022/08/31 08:23:27;;;;;;;0.90;0.60;;;;;;;38.42;24.79;100616.61;106038;1270;138694;-76
2022/08/31 08:26:42;;;;;;;1.80;0.60;;;;;;;38.39;24.34;100618.87;105767;1276;107818;-75
2022/08/31 08:29:41;;;;;;;1.50;0.70;;;;;;;38.10;24.88;100617.10;105477;1278;138162;-75
2022/08/31 08:32:19;;;;;;;3.80;0.70;;;;;;;37.87;24.44;100617.88;105995;1271;97839;-75
2022/08/31 08:34:51;;;;;;;2.30;1.00;;;;;;;37.71;23.91;100612.73;106006;1271;139416;-74
2022/08/31 08:37:26;;;;;;;2.10;0.70;;;;;;;37.56;23.88;100612.83;106199;1271;112502;-75
2022/08/31 08:40:30;;;;;;;1.70;0.70;;;;;;;37.18;24.34;100615.22;106091;1271;138122;-75
2022/08/31 08:43:04;;;;;;;3.50;0.70;;;;;;;36.86;23.73;100611.06;106113;1271;107830;-75
2022/08/31 08:45:37;;;;;;;0.90;0.60;;;;;;;35.91;24.02;100620.81;106103;1271;97989;-75
2022/08/31 08:48:13;;;;;;;2.20;0.60;;;;;;;35.07;24.25;100616.39;105942;1272;210715;-76
2022/08/31 08:50:46;;;;;;;0.90;0.60;;;;;;;34.83;24.83;100623.08;106130;1271;112775;-75
2022/08/31 08:53:31;;;;;;;0.90;0.70;;;;;;;35.02;25.31;100614.50;105947;1273;137860;-75
2022/08/31 08:56:23;;;;;;;2.20;0.80;;;;;;;35.06;25.57;100617.57;106194;1271;108481;-76
2022/08/31 08:59:06;;;;;;;3.10;0.70;;;;;;;35.14;25.97;100615.73;105879;1271;140262;-74
2022/08/31 09:01:47;;;;;;;1.50;0.70;;;;;;;35.42;25.50;100617.42;105925;1271;97840;-73
2022/08/31 09:04:40;;;;;;;1.50;0.70;;;;;;;35.65;24.85;100617.77;105842;1271;137846;-73
2022/08/31 09:07:37;;;;;;;0.80;0.60;;;;;;;35.85;24.91;100620.05;105978;1271;107782;-75
2022/08/31 09:10:18;;;;;;;1.40;0.70;;;;;;;35.92;24.41;100619.47;105923;1271;108867;-75
2022/08/31 09:13:00;;;;;;;3.60;0.80;;;;;;;35.95;24.22;100619.77;105969;1272;97826;-75
2022/08/31 09:15:47;;;;;;;1.50;0.60;;;;;;;35.98;23.90;100624.70;106049;1271;97781;-75
2022/08/31 09:18:37;;;;;;;0.50;0.40;;;;;;;35.83;23.72;100625.05;106061;1270;137719;-75
2022/08/31 09:21:20;;;;;;;1.80;0.60;;;;;;;35.70;24.00;100620.20;106156;1271;109143;-76
2022/08/31 09:24:04;;;;;;;2.80;0.60;;;;;;;35.66;23.96;100625.07;105965;1270;137899;-75
2022/08/31 09:27:16;;;;;;;1.40;0.80;;;;;;;35.62;24.12;100623.69;106162;1271;97858;-75
2022/08/31 09:29:55;;;;;;;2.40;0.70;;;;;;;35.58;23.90;100621.00;106091;1270;137762;-75
2022/08/31 09:32:30;;;;;;;3.00;0.70;;;;;;;35.49;23.72;100616.70;106167;1271;112499;-73
2022/08/31 09:35:05;;;;;;;1.40;0.60;;;;;;;35.42;24.13;100613.44;106063;1271;137958;-75
2022/08/31 09:37:44;;;;;;;0.80;0.50;;;;;;;35.29;24.24;100612.97;106161;1271;109297;-73
2022/08/31 09:40:20;;;;;;;1.30;0.60;;;;;;;35.19;24.08;100612.50;107650;1270;140017;-73
2022/08/31 09:43:07;;;;;;;1.50;0.70;;;;;;;35.18;24.25;100607.40;107855;1270;96084;-75
2022/08/31 09:45:54;;;;;;;1.50;0.80;;;;;;;35.12;24.39;100603.41;107864;1270;111509;-75
2022/08/31 09:48:42;;;;;;;;;;;;;;;35.07;24.15;100604.06;107745;1270;138268;-75
2022/08/31 09:51:24;;;;;;;1.50;0.80;;;;;;;35.01;23.57;100604.06;106715;1270;106476;-76
2022/08/31 09:56:57;;;;;;;1.80;0.80;;;;;;;34.17;23.45;100608.16;106209;1270;98360;-76
2022/08/31 09:59:36;;;;;;;1.70;0.80;;;;;;;33.85;23.75;100601.63;106158;1270;139020;-76
2022/08/31 10:02:12;;;;;;;3.50;0.70;;;;;;;33.41;23.99;100603.73;106268;1270;108818;-75
2022/08/31 10:04:54;;;;;;;2.70;0.70;;;;;;;33.18;23.71;100596.45;106095;1269;138353;-76
2022/08/31 10:07:39;;;;;;;3.20;0.80;;;;;;;33.06;24.24;100602.95;106170;1271;97861;-74
2022/08/31 10:10:14;;;;;;;2.00;0.60;;;;;;;32.91;24.68;100604.67;106052;1271;137915;-74
2022/08/31 10:13:05;;;;;;;3.30;0.60;;;;;;;32.44;23.62;100603.82;106046;1271;112661;-75
2022/08/31 10:15:43;;;;;;;2.30;0.80;;;;;;;32.01;23.95;100603.86;106119;1271;109893;-75
2022/08/31 10:18:22;;;;;;;2.60;0.60;;;;;;;32.05;24.84;100606.95;106038;1271;137853;-75
2022/08/31 10:21:04;;;;;;;2.40;0.50;;;;;;;32.17;24.96;100600.86;106195;1271;97797;-73
2022/08/31 10:23:53;;;;;;;1.20;0.80;;;;;;;32.31;25.26;100590.91;106089;1271;137915;-75
2022/08/31 10:26:35;;;;;;;2.40;0.60;;;;;;;32.48;24.99;100584.66;106133;1271;112523;-74
2022/08/31 10:29:15;;;;;;;2.60;0.50;;;;;;;32.34;24.76;100589.84;105977;1271;137806;-73
2022/08/31 10:31:59;;;;;;;0.90;0.50;;;;;;;31.82;24.28;100598.06;106136;1269;108816;-74
2022/08/31 10:37:35;;;;;;;1.60;0.80;;;;;;;31.41;24.48;100595.48;106154;1270;97919;-74
2022/08/31 10:40:12;;;;;;;2.00;0.90;;;;;;;31.55;25.35;100590.86;106174;1270;112399;-74
2022/08/31 10:42:56;;;;;;;2.30;1.10;;;;;;;31.77;25.61;100589.20;107760;1271;108842;-74
2022/08/31 10:45:33;;;;;;;5.10;0.80;;;;;;;31.95;25.13;100587.87;107223;1270;108773;-74
2022/08/31 10:48:06;;;;;;;1.90;0.60;;;;;;;32.10;25.28;100588.15;106047;1270;138059;-74
2022/08/31 10:50:45;;;;;;;3.80;0.80;;;;;;;31.94;24.69;100582.27;106163;1270;97720;-73
2022/08/31 10:53:32;;;;;;;2.30;0.90;;;;;;;31.46;24.39;100584.64;106208;1270;137839;-73
2022/08/31 10:56:17;;;;;;;3.30;0.70;;;;;;;30.98;24.33;100588.70;107805;1270;108868;-74
2022/08/31 10:59:03;;;;;;;4.20;0.90;;;;;;;30.58;24.44;100589.09;107656;1270;138185;-74
2022/08/31 11:01:44;;;;;;;0.80;0.70;;;;;;;30.47;25.36;100589.39;107727;1271;96595;-73
2022/08/31 11:04:41;;;;;;;2.50;0.80;;;;;;;30.56;26.00;100584.81;107581;1270;141977;-70
2022/08/31 11:07:27;;;;;;;4.30;0.90;;;;;;;30.66;26.71;100580.98;107726;1271;112473;-72
2022/08/31 11:10:15;;;;;;;3.90;0.90;;;;;;;30.79;26.49;100578.34;107783;1271;108980;-71
2022/08/31 11:12:55;;;;;;;2.70;1.00;;;;;;;30.82;26.01;100572.23;107731;1271;108857;-71
2022/08/31 11:16:05;;;;;;;3.00;0.90;;;;;;;30.96;25.82;100568.29;107748;1271;96133;-72
2022/08/31 11:19:15;;;;;;;0.90;0.50;;;;;;;30.86;25.03;100569.40;107794;1271;96082;-73
2022/08/31 11:22:30;;;;;;;2.00;1.00;;;;;;;30.32;24.90;100574.54;107754;1271;111415;-73
2022/08/31 11:25:32;;;;;;;3.70;1.00;;;;;;;29.90;24.89;100569.55;107645;1273;109045;-73
2022/08/31 11:28:11;;;;;;;1.20;0.80;;;;;;;29.74;25.35;100565.46;107772;1271;107761;-73
2022/08/31 11:30:48;;;;;;;3.50;1.10;;;;;;;29.70;26.07;100564.61;107750;1271;96959;-73
2022/08/31 11:33:26;;;;;;;1.30;0.80;;;;;;;29.58;26.30;100568.05;106428;1271;98060;-72
2022/08/31 11:36:04;;;;;;;3.90;0.60;;;;;;;29.22;25.46;100567.79;106115;1270;138713;-73
2022/08/31 11:38:53;;;;;;;3.70;0.90;;;;;;;28.80;25.57;100565.13;106174;1270;108773;-72
2022/08/31 11:41:37;;;;;;;1.60;0.60;;;;;;;28.45;25.98;100568.80;106053;1270;137817;-71
2022/08/31 11:44:30;;;;;;;2.00;0.70;;;;;;;28.16;26.67;100568.89;106164;1271;97835;-81
2022/08/31 11:47:06;;;;;;;2.20;0.90;;;;;;;27.84;26.65;100567.83;106034;1272;139216;-72
2022/08/31 11:49:48;;;;;;;3.40;1.00;;;;;;;27.48;26.84;100569.20;106187;1271;112450;-75
2022/08/31 11:52:42;;;;;;;2.30;0.90;;;;;;;27.25;27.26;100568.59;106009;1271;138632;-75
2022/08/31 11:55:27;;;;;;;1.70;0.70;;;;;;;27.00;27.71;100565.06;106180;1270;108981;-77
2022/08/31 11:58:25;;;;;;;2.10;0.60;;;;;;;26.68;27.58;100564.56;106396;1270;97831;-75
2022/08/31 12:01:02;;;;;;;4.10;0.70;;;;;;;26.27;27.88;100561.31;106109;1271;97712;-74
2022/08/31 12:03:52;;;;;;;;;;;;;;;26.12;28.36;100558.27;106202;1270;111362;-75
2022/08/31 12:06:55;;;;;;;1.50;0.70;;;;;;;26.02;29.18;100558.67;106080;1270;124333;-75
2022/08/31 12:10:04;;;;;;;2.30;0.80;;;;;;;26.15;29.65;100551.50;106145;1271;107808;-74
2022/08/31 12:13:17;;;;;;;3.60;1.00;;;;;;;26.11;29.15;100549.57;105973;1271;137635;-73
2022/08/31 12:16:07;;;;;;;2.70;0.90;;;;;;;25.80;28.95;100543.89;106087;1271;97894;-75
2022/08/31 12:18:59;;;;;;;3.40;0.90;;;;;;;25.41;28.90;100545.83;106083;1271;137556;-76
2022/08/31 12:24:38;;;;;;;1.40;0.80;;;;;;;25.03;29.49;100543.89;106042;1271;139435;-76